createdAt,value
2022-08-19T00:01:52.923Z,16.67
2022-08-19T00:04:24.352Z,18.63
2022-08-19T00:06:52.676Z,24.33
2022-08-19T00:09:23.016Z,18.63
2022-08-19T00:11:52.042Z,20.70
2022-08-19T00:14:21.779Z,15.90
2022-08-19T00:16:52.534Z,18.60
2022-08-19T00:19:20.730Z,20.83
2022-08-19T00:21:49.116Z,19.93
2022-08-19T00:24:17.909Z,18.47
2022-08-19T00:26:46.774Z,14.70
2022-08-19T00:29:17.955Z,25.00
2022-08-19T00:31:47.031Z,14.70
2022-08-19T00:34:17.662Z,19.07
2022-08-19T00:36:45.918Z,17.17
2022-08-19T00:39:14.895Z,15.67
2022-08-19T00:41:43.259Z,20.20
2022-08-19T00:44:13.625Z,24.27
2022-08-19T00:46:44.770Z,22.03
2022-08-19T00:49:29.953Z,22.03
2022-08-19T00:52:02.648Z,18.93
2022-08-19T00:54:32.484Z,19.33
2022-08-19T00:57:01.545Z,26.57
2022-08-19T00:59:56.468Z,18.10
2022-08-19T01:02:19.624Z,21.50
2022-08-19T01:04:50.356Z,21.23
2022-08-19T01:07:19.549Z,20.43
2022-08-19T01:09:48.302Z,19.87
2022-08-19T01:12:17.244Z,20.70
2022-08-19T01:14:45.606Z,22.87
2022-08-19T01:17:14.577Z,26.70
2022-08-19T01:19:45.116Z,21.40
2022-08-19T01:22:27.717Z,25.50
2022-08-19T01:25:00.040Z,33.87
2022-08-19T01:27:30.806Z,21.27
2022-08-19T01:30:13.438Z,26.53
2022-08-19T01:32:41.613Z,30.80
2022-08-19T01:35:10.343Z,24.40
2022-08-19T01:37:46.223Z,21.90
2022-08-19T01:40:17.980Z,29.00
2022-08-19T01:42:46.220Z,27.03
2022-08-19T01:45:14.434Z,27.03
2022-08-19T01:47:42.775Z,26.13
2022-08-19T01:50:20.224Z,28.27
2022-08-19T01:52:50.255Z,27.40
2022-08-19T01:55:33.644Z,29.73
2022-08-19T01:58:07.249Z,29.20
2022-08-19T02:00:35.619Z,27.60
2022-08-19T02:03:03.755Z,31.23
2022-08-19T02:05:32.883Z,27.60
2022-08-19T02:08:01.064Z,33.27
2022-08-19T02:10:29.196Z,34.87
2022-08-19T02:12:58.695Z,29.87
2022-08-19T02:15:27.636Z,28.90
2022-08-19T02:17:55.779Z,26.90
2022-08-19T02:20:23.912Z,35.47
2022-08-19T02:22:53.646Z,32.00
2022-08-19T02:25:22.048Z,26.03
2022-08-19T02:27:50.188Z,24.87
2022-08-19T02:30:20.808Z,30.30
2022-08-19T02:32:48.959Z,31.60
2022-08-19T02:35:17.148Z,31.77
2022-08-19T02:38:03.172Z,29.33
2022-08-19T02:40:34.868Z,27.87
2022-08-19T02:43:03.360Z,32.43
2022-08-19T02:45:36.756Z,33.87
2022-08-19T02:48:12.763Z,36.13
2022-08-19T02:50:55.777Z,34.43
2022-08-19T02:53:25.219Z,30.50
2022-08-19T02:55:53.947Z,32.73
2022-08-19T02:58:23.398Z,25.60
2022-08-19T03:00:56.981Z,30.40
2022-08-19T03:03:25.603Z,28.53
2022-08-19T03:05:56.717Z,29.63
2022-08-19T03:08:26.635Z,29.97
2022-08-19T03:10:55.151Z,30.47
2022-08-19T03:13:25.041Z,35.03
2022-08-19T03:15:54.811Z,34.03
2022-08-19T03:18:23.393Z,31.93
2022-08-19T03:20:55.572Z,28.93
2022-08-19T03:23:24.207Z,34.40
2022-08-19T03:26:05.622Z,33.40
2022-08-19T03:28:47.698Z,33.70
2022-08-19T03:31:41.562Z,31.60
2022-08-19T03:34:13.428Z,38.67
2022-08-19T03:36:42.353Z,30.47
2022-08-19T03:39:11.843Z,31.53
2022-08-19T03:41:45.535Z,31.60
2022-08-19T03:44:17.973Z,30.60
2022-08-19T03:46:49.051Z,34.87
2022-08-19T03:49:18.563Z,39.13
2022-08-19T03:51:48.110Z,30.07
2022-08-19T03:54:18.279Z,33.17
2022-08-19T03:56:48.796Z,30.37
2022-08-19T03:59:19.712Z,34.50
2022-08-19T04:01:49.675Z,29.73
2022-08-19T04:04:17.814Z,31.03
2022-08-19T04:06:48.895Z,31.87
2022-08-19T04:09:17.650Z,32.97
2022-08-19T04:11:49.218Z,36.47
2022-08-19T04:14:19.715Z,35.17
2022-08-19T04:16:50.362Z,31.50
2022-08-19T04:19:20.440Z,32.13
2022-08-19T04:21:51.943Z,29.47
2022-08-19T04:24:21.048Z,28.37
2022-08-19T04:26:49.846Z,30.07
2022-08-19T04:29:23.045Z,33.23
2022-08-19T04:31:54.543Z,37.73
2022-08-19T04:34:25.131Z,39.60
2022-08-19T04:36:55.071Z,31.43
2022-08-19T04:39:45.103Z,36.23
2022-08-19T04:42:31.209Z,38.67
2022-08-19T04:44:59.802Z,36.87
2022-08-19T04:47:47.909Z,34.30
2022-08-19T04:50:18.732Z,38.03
2022-08-19T04:52:47.131Z,41.83
2022-08-19T04:55:15.513Z,39.93
2022-08-19T04:57:43.672Z,35.73
2022-08-19T05:00:13.053Z,37.23
2022-08-19T05:02:42.630Z,31.50
2022-08-19T05:05:11.397Z,34.77
2022-08-19T05:07:42.073Z,37.03
2022-08-19T05:10:10.879Z,39.67
2022-08-19T05:12:39.315Z,37.33
2022-08-19T05:15:09.594Z,46.63
2022-08-19T05:17:39.150Z,34.67
2022-08-19T05:20:28.206Z,36.67
2022-08-19T05:22:56.739Z,32.33
2022-08-19T05:25:26.279Z,40.33
2022-08-19T05:27:54.417Z,32.33
2022-08-19T05:30:33.639Z,36.53
2022-08-19T05:33:12.305Z,38.63
2022-08-19T05:35:42.129Z,33.20
2022-08-19T05:38:11.928Z,34.50
2022-08-19T05:40:41.103Z,37.53
2022-08-19T05:43:10.179Z,42.20
2022-08-19T05:45:43.037Z,34.13
2022-08-19T05:48:12.400Z,38.93
2022-08-19T05:50:43.529Z,41.90
2022-08-19T05:53:11.749Z,38.60
2022-08-19T05:55:40.735Z,40.33
2022-08-19T05:58:09.227Z,38.13
2022-08-19T06:00:38.088Z,42.60
2022-08-19T06:03:12.794Z,39.53
2022-08-19T06:05:52.107Z,37.87
2022-08-19T06:08:34.636Z,48.10
2022-08-19T06:11:18.907Z,43.40
2022-08-19T06:13:51.876Z,53.43
2022-08-19T06:16:28.989Z,43.00
2022-08-19T06:18:58.940Z,39.33
2022-08-19T06:21:30.500Z,47.40
2022-08-19T06:24:00.120Z,41.80
2022-08-19T06:26:29.140Z,44.13
2022-08-19T06:28:57.494Z,40.33
2022-08-19T06:31:28.882Z,47.03
2022-08-19T06:33:57.420Z,45.60
2022-08-19T06:36:32.813Z,41.47
2022-08-19T06:39:02.468Z,42.57
2022-08-19T06:41:31.864Z,37.53
2022-08-19T06:44:00.240Z,43.70
2022-08-19T06:46:29.736Z,35.60
2022-08-19T06:49:02.677Z,31.97
2022-08-19T06:54:03.131Z,28.30
2022-08-19T06:56:35.612Z,28.13
2022-08-19T06:59:05.774Z,26.80
2022-08-19T07:01:38.517Z,18.93
2022-08-19T07:04:08.114Z,34.67
2022-08-19T07:06:44.377Z,20.20
2022-08-19T07:09:14.955Z,20.43
2022-08-19T07:11:48.256Z,17.53
2022-08-19T07:14:19.878Z,15.00
2022-08-19T07:16:49.922Z,15.63
2022-08-19T07:19:19.299Z,14.50
2022-08-19T07:21:49.913Z,12.47
2022-08-19T07:24:19.675Z,15.33
2022-08-19T07:26:51.787Z,12.07
2022-08-19T07:29:21.432Z,16.93
2022-08-19T07:31:53.142Z,14.80
2022-08-19T07:34:22.463Z,13.80
2022-08-19T07:36:53.283Z,20.43
2022-08-19T07:39:28.015Z,12.03
2022-08-19T07:41:57.298Z,10.43
2022-08-19T07:44:25.890Z,11.47
2022-08-19T07:46:57.787Z,10.13
2022-08-19T07:49:26.591Z,7.00
2022-08-19T07:51:57.942Z,8.83
2022-08-19T07:54:29.211Z,7.63
2022-08-19T07:56:57.919Z,7.00
2022-08-19T07:59:26.076Z,6.57
2022-08-19T08:01:54.886Z,6.30
2022-08-19T08:04:41.045Z,5.40
2022-08-19T08:07:31.450Z,5.60
2022-08-19T08:10:03.075Z,4.80
2022-08-19T08:12:35.292Z,4.77
2022-08-19T08:15:12.445Z,4.90
2022-08-19T08:17:49.327Z,4.97
2022-08-19T08:20:20.556Z,4.40
2022-08-19T08:23:07.681Z,5.00
2022-08-19T08:25:38.364Z,4.90
2022-08-19T08:28:09.652Z,3.80
2022-08-19T08:30:45.132Z,4.10
2022-08-19T08:33:13.911Z,3.97
2022-08-19T08:35:43.866Z,7.10
2022-08-19T08:38:13.867Z,4.43
2022-08-19T08:40:46.788Z,4.17
2022-08-19T08:43:23.876Z,4.73
2022-08-19T08:45:57.432Z,5.33
2022-08-19T08:48:34.400Z,5.00
2022-08-19T08:51:07.048Z,5.23
2022-08-19T08:53:41.851Z,5.30
2022-08-19T08:56:13.985Z,6.70
2022-08-19T08:58:55.320Z,11.10
2022-08-19T09:01:23.602Z,6.60
2022-08-19T09:03:53.585Z,6.37
2022-08-19T09:06:31.380Z,8.13
2022-08-19T09:09:11.858Z,8.70
2022-08-19T09:11:51.850Z,7.60
2022-08-19T09:14:51.841Z,9.37
2022-08-19T09:17:29.185Z,7.33
2022-08-19T09:20:01.921Z,8.07
2022-08-19T09:22:30.121Z,7.60
2022-08-19T09:24:59.712Z,9.30
2022-08-19T09:27:42.069Z,8.73
2022-08-19T09:30:20.302Z,7.47
2022-08-19T09:32:52.863Z,7.73
2022-08-19T09:35:24.270Z,7.30
2022-08-19T09:37:57.362Z,8.90
2022-08-19T09:40:30.140Z,8.50
2022-08-19T09:43:11.408Z,6.83
2022-08-19T09:45:42.231Z,6.57
2022-08-19T09:48:11.913Z,6.53
2022-08-19T09:50:51.979Z,6.43
2022-08-19T09:53:25.405Z,5.43
2022-08-19T09:55:57.235Z,7.87
2022-08-19T09:58:28.694Z,4.33
2022-08-19T10:00:57.393Z,5.50
2022-08-19T10:03:30.143Z,5.13
2022-08-19T10:06:01.067Z,5.60
2022-08-19T10:08:33.961Z,5.93
2022-08-19T10:11:28.497Z,5.30
2022-08-19T10:13:54.754Z,5.27
2022-08-19T10:16:30.028Z,5.50
2022-08-19T10:18:59.358Z,5.70
2022-08-19T10:21:29.781Z,5.27
2022-08-19T10:24:02.778Z,5.67
2022-08-19T10:26:35.554Z,6.40
2022-08-19T10:29:06.011Z,8.60
2022-08-19T10:32:01.139Z,7.23
2022-08-19T10:34:28.397Z,9.50
2022-08-19T10:37:00.493Z,6.23
2022-08-19T10:39:31.318Z,7.90
2022-08-19T10:42:01.663Z,7.03
2022-08-19T10:44:32.217Z,6.83
2022-08-19T10:47:01.611Z,6.30
2022-08-19T10:49:30.099Z,6.33
2022-08-19T10:52:19.035Z,7.57
2022-08-19T10:55:08.485Z,7.27
2022-08-19T10:58:01.368Z,6.50
2022-08-19T11:00:27.080Z,6.67
2022-08-19T11:02:55.241Z,6.70
2022-08-19T11:05:24.215Z,6.70
2022-08-19T11:07:53.206Z,8.70
2022-08-19T11:10:22.964Z,8.93
2022-08-19T11:12:55.850Z,6.87
2022-08-19T11:15:24.315Z,6.47
2022-08-19T11:17:55.376Z,7.10
2022-08-19T11:20:24.652Z,7.77
2022-08-19T11:22:54.573Z,7.60
2022-08-19T11:25:23.345Z,7.40
2022-08-19T11:27:53.265Z,7.43
2022-08-19T11:30:21.844Z,7.50
2022-08-19T11:32:50.506Z,8.20
2022-08-19T11:35:21.162Z,9.70
2022-08-19T11:37:49.347Z,7.03
2022-08-19T11:40:17.791Z,7.73
2022-08-19T11:42:58.192Z,11.20
2022-08-19T11:45:30.183Z,10.93
2022-08-19T11:47:58.429Z,10.43
2022-08-19T11:50:27.218Z,12.53
2022-08-19T11:52:56.841Z,13.10
2022-08-19T11:55:25.665Z,12.00
2022-08-19T11:57:53.995Z,15.17
2022-08-19T12:00:22.581Z,10.97
2022-08-19T12:02:52.107Z,12.17
2022-08-19T12:05:20.431Z,13.10
2022-08-19T12:07:48.602Z,10.67
2022-08-19T12:10:18.973Z,11.27
2022-08-19T12:12:56.402Z,12.50
2022-08-19T12:15:37.118Z,12.27
2022-08-19T12:18:07.425Z,11.40
2022-08-19T12:20:37.810Z,13.17
2022-08-19T12:23:06.444Z,15.50
2022-08-19T12:25:35.467Z,12.03
2022-08-19T12:28:04.605Z,13.40
2022-08-19T12:30:33.228Z,14.80
2022-08-19T12:33:01.389Z,13.10
2022-08-19T12:35:31.542Z,12.50
2022-08-19T12:38:00.985Z,13.27
2022-08-19T12:40:29.397Z,19.00
2022-08-19T12:42:57.580Z,10.23
2022-08-19T12:45:25.779Z,14.03
2022-08-19T12:47:55.345Z,10.23
2022-08-19T12:50:23.882Z,10.30
2022-08-19T12:52:53.659Z,9.87
2022-08-19T12:55:21.983Z,10.90
2022-08-19T12:57:51.463Z,12.10
2022-08-19T13:00:22.829Z,12.90
2022-08-19T13:02:53.748Z,10.50
2022-08-19T13:05:23.838Z,10.03
2022-08-19T13:07:56.826Z,10.57
2022-08-19T13:10:28.809Z,11.43
2022-08-19T13:12:57.847Z,12.10
2022-08-19T13:15:26.309Z,10.70
2022-08-19T13:17:56.970Z,11.60
2022-08-19T13:20:26.287Z,10.60
2022-08-19T13:22:58.152Z,16.63
2022-08-19T13:25:27.588Z,9.30
2022-08-19T13:27:56.259Z,8.90
2022-08-19T13:30:42.079Z,9.93
2022-08-19T13:33:15.963Z,8.90
2022-08-19T13:35:48.852Z,8.90
2022-08-19T13:38:21.580Z,8.90
2022-08-19T13:40:51.503Z,9.00
2022-08-19T13:43:23.821Z,13.20
2022-08-19T13:45:57.451Z,10.47
2022-08-19T13:48:27.997Z,10.47
2022-08-19T13:50:56.789Z,11.23
2022-08-19T13:53:26.851Z,11.20
2022-08-19T13:55:55.470Z,11.30
2022-08-19T13:58:24.368Z,11.20
2022-08-19T14:00:52.663Z,10.43
2022-08-19T14:03:20.815Z,12.57
2022-08-19T14:05:49.037Z,11.00
2022-08-19T14:08:17.255Z,11.37
2022-08-19T14:10:47.338Z,13.00
2022-08-19T14:13:18.301Z,13.10
2022-08-19T14:15:47.067Z,10.20
2022-08-19T14:18:15.522Z,10.90
2022-08-19T14:20:43.722Z,11.80
2022-08-19T14:23:13.360Z,14.10
2022-08-19T14:25:41.648Z,13.83
2022-08-19T14:28:11.232Z,11.87
2022-08-19T14:30:39.937Z,18.70
2022-08-19T14:33:09.517Z,11.60
2022-08-19T14:35:37.786Z,12.80
2022-08-19T14:38:07.087Z,11.33
2022-08-19T14:40:35.838Z,13.37
2022-08-19T14:43:06.557Z,17.80
2022-08-19T14:45:38.503Z,12.10
2022-08-19T14:48:19.381Z,11.93
2022-08-19T14:50:48.792Z,12.57
2022-08-19T14:53:18.813Z,19.23
2022-08-19T14:55:47.750Z,13.40
2022-08-19T14:58:29.231Z,12.40
2022-08-19T15:01:01.150Z,13.30
2022-08-19T15:03:30.118Z,12.50
2022-08-19T15:05:59.100Z,13.13
2022-08-19T15:08:28.395Z,15.03
2022-08-19T15:10:56.652Z,15.67
2022-08-19T15:13:26.039Z,17.67
2022-08-19T15:15:54.676Z,17.27
2022-08-19T15:18:24.631Z,27.43
2022-08-19T15:20:52.976Z,17.47
2022-08-19T15:23:22.755Z,19.30
2022-08-19T15:25:55.845Z,29.03
2022-08-19T15:28:26.082Z,21.10
2022-08-19T15:30:54.687Z,19.40
2022-08-19T15:33:24.227Z,19.70
2022-08-19T15:35:52.654Z,19.10
2022-08-19T15:38:22.158Z,20.70
2022-08-19T15:40:51.166Z,20.40
2022-08-19T15:43:21.805Z,24.20
2022-08-19T15:45:50.308Z,27.37
2022-08-19T15:48:18.476Z,23.00
2022-08-19T15:50:48.191Z,24.83
2022-08-19T15:53:17.132Z,29.23
2022-08-19T15:55:48.653Z,23.73
2022-08-19T15:58:34.918Z,21.93
2022-08-19T16:01:27.012Z,23.57
2022-08-19T16:04:15.663Z,21.60
2022-08-19T16:06:47.745Z,23.00
2022-08-19T16:09:17.241Z,24.33
2022-08-19T16:11:56.566Z,27.53
2022-08-19T16:14:25.883Z,26.93
2022-08-19T16:16:54.972Z,26.90
2022-08-19T16:19:23.563Z,22.37
2022-08-19T16:21:55.703Z,27.10
2022-08-19T16:24:27.747Z,30.10
2022-08-19T16:26:56.707Z,27.73
2022-08-19T16:29:33.886Z,34.97
2022-08-19T16:32:03.601Z,31.93
2022-08-19T16:34:32.210Z,39.43
2022-08-19T16:37:03.272Z,32.30
2022-08-19T16:39:31.650Z,34.60
2022-08-19T16:42:01.017Z,36.90
2022-08-19T16:44:30.195Z,32.83
2022-08-19T16:46:59.708Z,36.60
2022-08-19T16:49:54.289Z,36.40
2022-08-19T16:52:18.723Z,31.83
2022-08-19T16:54:47.982Z,35.90
2022-08-19T16:57:16.574Z,33.33
2022-08-19T16:59:49.229Z,35.20
2022-08-19T17:02:18.403Z,37.60
2022-08-19T17:04:57.301Z,32.93
2022-08-19T17:07:28.843Z,35.60
2022-08-19T17:09:57.665Z,31.00
2022-08-19T17:12:30.203Z,31.27
2022-08-19T17:15:00.951Z,30.33
2022-08-19T17:17:29.809Z,30.97
2022-08-19T17:19:59.205Z,32.37
2022-08-19T17:22:29.761Z,39.73
2022-08-19T17:24:58.708Z,34.83
2022-08-19T17:27:32.009Z,33.73
2022-08-19T17:30:02.911Z,35.40
2022-08-19T17:32:35.122Z,33.80
2022-08-19T17:35:04.771Z,32.63
2022-08-19T17:37:35.038Z,40.33
2022-08-19T17:40:04.028Z,41.03
2022-08-19T17:42:32.460Z,33.90
2022-08-19T17:45:00.852Z,50.43
2022-08-19T17:47:29.497Z,45.40
2022-08-19T17:49:57.811Z,43.07
2022-08-19T17:52:26.187Z,40.50
2022-08-19T17:54:56.462Z,42.93
2022-08-19T17:57:24.629Z,41.33
2022-08-19T17:59:53.097Z,39.63
2022-08-19T18:02:22.002Z,39.43
2022-08-19T18:04:50.639Z,34.13
2022-08-19T18:07:21.523Z,36.87
2022-08-19T18:09:52.018Z,40.37
2022-08-19T18:12:26.554Z,37.73
2022-08-19T18:14:55.129Z,36.27
2022-08-19T18:17:24.496Z,35.53
2022-08-19T18:19:52.708Z,39.13
2022-08-19T18:22:27.371Z,41.17
2022-08-19T18:24:56.419Z,40.50
2022-08-19T18:27:27.066Z,43.50
2022-08-19T18:29:59.623Z,41.00
2022-08-19T18:32:32.381Z,43.50
2022-08-19T18:35:02.516Z,44.13
2022-08-19T18:37:30.730Z,44.13
2022-08-19T18:40:16.585Z,45.10
2022-08-19T18:43:18.799Z,45.50
2022-08-19T18:46:07.189Z,38.87
2022-08-19T18:48:53.374Z,49.43
2022-08-19T18:51:24.197Z,47.73
2022-08-19T18:53:57.289Z,44.10
2022-08-19T18:56:28.910Z,40.63
2022-08-19T18:58:58.768Z,49.33
2022-08-19T19:01:31.406Z,44.03
2022-08-19T19:04:02.741Z,41.43
2022-08-19T19:06:35.869Z,49.23
2022-08-19T19:09:04.421Z,37.27
2022-08-19T19:11:35.386Z,45.47
2022-08-19T19:14:13.879Z,42.30
2022-08-19T19:16:51.456Z,39.03
2022-08-19T19:19:20.479Z,37.20
2022-08-19T19:21:53.162Z,36.97
2022-08-19T19:24:23.640Z,35.33
2022-08-19T19:26:53.630Z,44.43
2022-08-19T19:29:23.413Z,41.37
2022-08-19T19:31:52.992Z,44.20
2022-08-19T19:34:28.839Z,41.13
2022-08-19T19:36:58.555Z,44.37
2022-08-19T19:39:44.833Z,45.93
2022-08-19T19:42:20.349Z,49.50
2022-08-19T19:44:52.107Z,57.83
2022-08-19T19:47:28.036Z,47.23
2022-08-19T19:50:15.291Z,54.37
2022-08-19T19:52:46.630Z,51.80
2022-08-19T19:55:18.403Z,54.03
2022-08-19T19:57:47.151Z,56.83
2022-08-19T20:00:19.105Z,51.17
2022-08-19T20:02:50.218Z,56.67
2022-08-19T20:05:21.409Z,54.47
2022-08-19T20:08:09.603Z,60.17
2022-08-19T20:10:38.487Z,58.03
2022-08-19T20:13:07.847Z,65.63
2022-08-19T20:15:42.418Z,64.70
2022-08-19T20:18:11.456Z,65.77
2022-08-19T20:20:40.316Z,60.83
2022-08-19T20:23:09.194Z,72.30
2022-08-19T20:25:39.464Z,72.43
2022-08-19T20:28:07.648Z,65.93
2022-08-19T20:30:38.476Z,66.57
2022-08-19T20:33:13.801Z,69.27
2022-08-19T20:35:42.753Z,71.47
2022-08-19T20:38:11.008Z,73.53
2022-08-19T20:40:40.181Z,72.53
2022-08-19T20:43:13.518Z,77.17
2022-08-19T20:45:43.615Z,77.07
2022-08-19T20:48:12.530Z,78.93
2022-08-19T20:50:40.859Z,80.30
2022-08-19T20:53:13.746Z,72.77
2022-08-19T20:55:45.471Z,84.63
2022-08-19T20:58:14.357Z,78.33
2022-08-19T21:00:45.583Z,72.23
2022-08-19T21:03:17.214Z,74.47
2022-08-19T21:05:46.795Z,75.77
2022-08-19T21:08:15.665Z,71.57
2022-08-19T21:10:44.686Z,74.73
2022-08-19T21:13:13.003Z,63.53
2022-08-19T21:15:43.294Z,68.50
2022-08-19T21:18:14.485Z,63.67
2022-08-19T21:20:43.718Z,62.57
2022-08-19T21:23:15.963Z,64.50
2022-08-19T21:25:54.175Z,59.10
2022-08-19T21:28:35.744Z,58.17
2022-08-19T21:31:05.390Z,52.70
2022-08-19T21:33:35.145Z,55.00
2022-08-19T21:36:03.833Z,60.80
2022-08-19T21:38:32.355Z,57.87
2022-08-19T21:41:00.616Z,49.43
2022-08-19T21:43:34.576Z,51.93
2022-08-19T21:46:02.874Z,60.47
2022-08-19T21:48:31.053Z,68.23
2022-08-19T21:51:00.709Z,52.33
2022-08-19T21:53:34.003Z,59.67
2022-08-19T21:56:03.089Z,61.33
2022-08-19T21:58:31.419Z,53.03
2022-08-19T22:01:00.225Z,63.63
2022-08-19T22:03:28.709Z,62.60
2022-08-19T22:05:58.618Z,68.43
2022-08-19T22:08:28.318Z,69.93
2022-08-19T22:10:56.480Z,67.37
2022-08-19T22:13:25.003Z,84.47
2022-08-19T22:15:55.043Z,80.80
2022-08-19T22:18:24.302Z,82.90
2022-08-19T22:20:52.431Z,94.50
2022-08-19T22:23:20.887Z,94.47
2022-08-19T22:25:50.417Z,107.57
2022-08-19T22:28:27.882Z,91.00
2022-08-19T22:30:57.105Z,86.53
2022-08-19T22:33:27.778Z,117.70
2022-08-19T22:35:56.000Z,216.17
2022-08-19T22:38:25.056Z,90.40
2022-08-19T22:40:56.459Z,85.23
2022-08-19T22:43:28.551Z,98.47
2022-08-19T22:45:58.105Z,78.50
2022-08-19T22:48:29.020Z,104.20
2022-08-19T22:51:15.375Z,107.03
2022-08-19T22:53:46.624Z,87.00
2022-08-19T22:56:18.704Z,126.27
2022-08-19T22:58:49.998Z,77.00
2022-08-19T23:01:27.286Z,84.13
2022-08-19T23:03:58.485Z,102.97
2022-08-19T23:06:33.837Z,71.27
2022-08-19T23:09:05.040Z,84.43
2022-08-19T23:11:41.724Z,70.20
2022-08-19T23:14:12.584Z,80.20
2022-08-19T23:16:41.959Z,63.97
2022-08-19T23:19:10.723Z,95.53
2022-08-19T23:21:39.498Z,62.50
2022-08-19T23:24:08.193Z,68.90
2022-08-19T23:26:37.878Z,59.33
2022-08-19T23:29:24.182Z,65.40
2022-08-19T23:31:52.413Z,67.40
2022-08-19T23:34:20.588Z,54.03
2022-08-19T23:36:50.698Z,59.43
2022-08-19T23:39:19.320Z,53.67
2022-08-19T23:41:49.043Z,60.03
2022-08-19T23:44:17.440Z,71.57
2022-08-19T23:46:55.067Z,56.17
2022-08-19T23:49:25.769Z,51.03
2022-08-19T23:51:55.065Z,62.20
2022-08-19T23:54:23.556Z,51.17
2022-08-19T23:57:14.400Z,50.37
2022-08-19T23:59:45.300Z,68.03
